Time;durP1;ratioP1;P1;durP2;ratioP2;P2;SDS_P1;SDS_P2;PMS_P1;PMS_P2;Temp;Humidity;BMP_temperature;BMP_pressure;BME280_temperature;BME280_humidity;BME280_pressure;Samples;Min_cycle;Max_cycle;Signal;HPM_P1;HPM_P2
2023/05/09 00:01:46;;;;;;;64.22;39.15;;;16.20;99.90;;;;;;5036802;28;20041;-69
2023/05/09 00:04:12;;;;;;;82.00;42.65;;;16.10;99.90;;;;;;5036848;28;20051;-69
2023/05/09 00:06:37;;;;;;;67.07;40.78;;;16.10;99.90;;;;;;5036761;28;20083;-69
2023/05/09 00:09:04;;;;;;;63.90;39.28;;;16.20;99.90;;;;;;5036636;28;20086;-69
2023/05/09 00:11:29;;;;;;;66.38;40.53;;;16.20;99.90;;;;;;5036910;28;20068;-69
2023/05/09 00:13:55;;;;;;;69.40;39.30;;;16.10;99.90;;;;;;5036535;28;20494;-69
2023/05/09 00:16:22;;;;;;;58.78;37.47;;;16.30;99.90;;;;;;5036590;28;20137;-69
2023/05/09 00:18:48;;;;;;;70.72;40.30;;;16.20;99.90;;;;;;5036444;28;20056;-68
2023/05/09 00:21:14;;;;;;;66.68;37.85;;;16.10;99.90;;;;;;5019999;28;20041;-69
2023/05/09 00:23:39;;;;;;;62.05;37.63;;;16.20;99.90;;;;;;5019886;28;20117;-69
2023/05/09 00:26:05;;;;;;;55.08;35.90;;;16.20;99.90;;;;;;5019862;28;20045;-69
2023/05/09 00:28:31;;;;;;;58.42;36.75;;;16.10;99.90;;;;;;5019222;28;20037;-69
2023/05/09 00:30:57;;;;;;;63.42;36.38;;;16.00;99.90;;;;;;5036290;28;20041;-68
2023/05/09 00:33:25;;;;;;;65.38;37.67;;;16.10;99.90;;;;;;5036269;28;20045;-69
2023/05/09 00:35:54;;;;;;;59.88;35.25;;;16.00;99.90;;;;;;5036201;28;20094;-69
2023/05/09 00:38:22;;;;;;;56.90;36.30;;;16.00;99.90;;;;;;5054197;28;20048;-68
2023/05/09 00:40:47;;;;;;;59.20;36.50;;;16.00;99.90;;;;;;5036162;28;20432;-68
2023/05/09 00:43:13;;;;;;;53.80;34.33;;;16.10;99.90;;;;;;5035985;28;20083;-68
2023/05/09 00:45:38;;;;;;;51.00;33.88;;;16.00;99.90;;;;;;5036296;28;20120;-68
2023/05/09 00:48:04;;;;;;;54.42;34.03;;;16.00;99.90;;;;;;5019441;28;20412;-68
2023/05/09 00:50:30;;;;;;;57.45;34.40;;;16.00;99.90;;;;;;5036136;28;20056;-68
2023/05/09 00:52:57;;;;;;;56.17;34.55;;;16.00;99.90;;;;;;5035915;28;20429;-68
2023/05/09 00:55:22;;;;;;;55.80;35.40;;;15.90;99.90;;;;;;5036135;28;20055;-69
2023/05/09 00:57:48;;;;;;;52.85;34.22;;;15.80;99.90;;;;;;5035982;28;20037;-69
2023/05/09 01:00:14;;;;;;;53.15;33.78;;;16.00;99.90;;;;;;5036099;28;20569;-69
2023/05/09 01:02:51;;;;;;;58.78;34.30;;;16.00;99.90;;;;;;5035710;28;20045;-69
2023/05/09 01:05:17;;;;;;;57.70;34.60;;;16.00;99.90;;;;;;5053531;28;20045;-69
2023/05/09 01:07:54;;;;;;;57.13;35.40;;;15.90;99.90;;;;;;5035527;28;20079;-69
2023/05/09 01:10:23;;;;;;;58.78;37.40;;;15.80;99.90;;;;;;5035856;28;20125;-69
2023/05/09 01:13:12;;;;;;;55.40;35.00;;;15.90;99.90;;;;;;5019081;28;20076;-69
2023/05/09 01:15:37;;;;;;;55.30;35.88;;;16.00;99.90;;;;;;5035506;28;20037;-69
2023/05/09 01:18:20;;;;;;;58.08;34.63;;;15.80;99.90;;;;;;5035635;28;20048;-68
2023/05/09 01:20:54;;;;;;;54.13;33.97;;;15.90;99.90;;;;;;5035505;28;20041;-69
2023/05/09 01:23:57;;;;;;;54.25;33.72;;;15.70;99.90;;;;;;5035348;28;20040;-69
2023/05/09 01:26:45;;;;;;;48.45;32.38;;;15.80;99.90;;;;;;5035604;28;20045;-69
2023/05/09 01:29:33;;;;;;;51.30;34.42;;;15.90;99.90;;;;;;5035261;28;20048;-69
2023/05/09 01:32:03;;;;;;;60.80;36.58;;;15.80;99.90;;;;;;5035528;28;20064;-69
2023/05/09 01:34:31;;;;;;;51.88;34.72;;;15.70;99.90;;;;;;5035297;28;20456;-69
2023/05/09 01:36:59;;;;;;;55.17;35.03;;;15.70;99.90;;;;;;5018884;28;20048;-69
2023/05/09 01:39:28;;;;;;;61.13;36.80;;;15.80;99.90;;;;;;5035352;28;20076;-68
2023/05/09 01:41:56;;;;;;;55.20;35.40;;;15.80;99.90;;;;;;5035190;28;20052;-69
2023/05/09 01:44:24;;;;;;;53.08;34.55;;;15.70;99.90;;;;;;5035066;28;20056;-69
2023/05/09 01:46:53;;;;;;;52.35;33.70;;;15.80;99.90;;;;;;5035011;28;20125;-69
2023/05/09 01:49:20;;;;;;;58.58;36.58;;;15.70;99.90;;;;;;5035039;28;20029;-69
2023/05/09 01:51:47;;;;;;;60.53;37.55;;;15.80;99.90;;;;;;5035327;28;20110;-68
2023/05/09 01:54:16;;;;;;;52.38;35.60;;;15.70;99.90;;;;;;5035414;28;20127;-69
2023/05/09 01:56:42;;;;;;;61.03;38.33;;;15.70;99.90;;;;;;5035001;28;20049;-69
2023/05/09 01:59:14;;;;;;;52.20;33.97;;;15.60;99.90;;;;;;5035229;28;20075;-68
2023/05/09 02:01:41;;;;;;;56.17;35.67;;;15.80;99.90;;;;;;5035083;28;20057;-68
2023/05/09 02:04:07;;;;;;;54.75;36.08;;;15.60;99.90;;;;;;5034905;28;20421;-69
2023/05/09 02:06:34;;;;;;;58.65;37.05;;;15.60;99.90;;;;;;5034926;28;20175;-69
2023/05/09 02:09:01;;;;;;;60.15;36.60;;;15.70;99.90;;;;;;5034817;28;20052;-69
2023/05/09 02:11:27;;;;;;;61.88;37.05;;;15.50;99.90;;;;;;5034879;28;20095;-69
2023/05/09 02:13:53;;;;;;;56.55;34.72;;;15.50;99.90;;;;;;5035187;28;20040;-69
2023/05/09 02:16:19;;;;;;;51.50;35.10;;;15.60;99.90;;;;;;5034912;28;20048;-69
2023/05/09 02:18:45;;;;;;;53.05;34.60;;;15.60;99.90;;;;;;5018677;28;20048;-69
2023/05/09 02:21:11;;;;;;;53.55;35.08;;;15.50;99.90;;;;;;5035121;28;20049;-69
2023/05/09 02:23:37;;;;;;;56.85;36.00;;;15.50;99.90;;;;;;5034785;28;20386;-69
2023/05/09 02:26:03;;;;;;;64.20;35.22;;;15.50;99.90;;;;;;5034800;28;20045;-69
2023/05/09 02:28:29;;;;;;;55.17;35.47;;;15.50;99.90;;;;;;5034688;28;20059;-69
2023/05/09 02:30:57;;;;;;;61.72;37.10;;;15.50;99.90;;;;;;5034721;28;20090;-69
2023/05/09 02:33:23;;;;;;;59.53;38.00;;;15.50;99.90;;;;;;5052532;28;20090;-69
2023/05/09 02:35:51;;;;;;;57.90;36.85;;;15.60;99.90;;;;;;5034625;28;20037;-69
2023/05/09 02:38:18;;;;;;;54.22;35.33;;;15.50;99.90;;;;;;5034558;28;20045;-68
2023/05/09 02:40:45;;;;;;;53.88;36.65;;;15.40;99.90;;;;;;5034614;28;20045;-68
2023/05/09 02:43:11;;;;;;;57.85;37.45;;;15.60;99.90;;;;;;5034517;28;20041;-69
2023/05/09 02:45:37;;;;;;;58.83;37.53;;;15.60;99.90;;;;;;5034663;28;20048;-69
2023/05/09 02:48:03;;;;;;;64.13;37.55;;;15.50;99.90;;;;;;5034359;28;20132;-69
2023/05/09 02:50:29;;;;;;;69.03;40.28;;;15.60;99.90;;;;;;5053624;28;20033;-69
2023/05/09 02:52:54;;;;;;;59.78;38.00;;;15.40;99.90;;;;;;5038090;28;20090;-68
2023/05/09 02:55:20;;;;;;;61.53;37.90;;;15.40;99.90;;;;;;5055914;28;20071;-69
2023/05/09 02:57:46;;;;;;;52.53;35.58;;;15.40;99.90;;;;;;5038014;28;20052;-69
2023/05/09 03:00:12;;;;;;;61.92;37.28;;;15.50;99.90;;;;;;5056660;28;20037;-69
2023/05/09 03:02:37;;;;;;;51.25;35.28;;;15.50;99.90;;;;;;5038242;28;20379;-69
2023/05/09 03:05:03;;;;;;;60.75;37.15;;;15.50;99.90;;;;;;5037861;28;20059;-69
2023/05/09 03:07:30;;;;;;;57.17;36.95;;;15.60;99.90;;;;;;5037850;28;20086;-69
2023/05/09 03:09:56;;;;;;;54.05;35.95;;;15.40;99.90;;;;;;5037727;28;20041;-69
2023/05/09 03:12:21;;;;;;;57.83;37.20;;;15.60;99.90;;;;;;5055944;28;20029;-69
2023/05/09 03:14:47;;;;;;;56.90;37.83;;;15.60;99.90;;;;;;5037753;28;20041;-69
2023/05/09 03:17:16;;;;;;;56.17;36.00;;;15.50;99.90;;;;;;5037826;28;20051;-69
2023/05/09 03:19:42;;;;;;;57.72;37.03;;;15.60;99.90;;;;;;5037563;28;20040;-69
2023/05/09 03:22:07;;;;;;;59.13;37.95;;;15.50;99.90;;;;;;5037546;28;20070;-69
2023/05/09 03:24:33;;;;;;;67.05;39.42;;;15.50;99.90;;;;;;5037565;28;20072;-69
2023/05/09 03:26:58;;;;;;;54.97;35.17;;;15.60;99.90;;;;;;5037498;28;20044;-69
2023/05/09 03:29:24;;;;;;;60.45;36.33;;;15.60;99.90;;;;;;5037685;28;20045;-69
2023/05/09 03:31:50;;;;;;;59.40;37.72;;;15.70;99.90;;;;;;5037673;28;20037;-69
2023/05/09 03:34:16;;;;;;;57.35;37.42;;;15.50;99.90;;;;;;5021164;28;20186;-69
2023/05/09 03:36:44;;;;;;;58.72;36.97;;;15.50;99.90;;;;;;5037292;28;20499;-69
2023/05/09 03:39:10;;;;;;;64.80;37.63;;;15.60;99.90;;;;;;5037141;28;20071;-69
2023/05/09 03:41:36;;;;;;;62.58;38.40;;;15.60;99.90;;;;;;5055105;28;20029;-69
2023/05/09 03:44:03;;;;;;;63.13;38.22;;;15.50;99.90;;;;;;5037340;28;20063;-69
2023/05/09 03:46:28;;;;;;;72.80;41.95;;;15.50;99.90;;;;;;5036976;28;20401;-69
2023/05/09 03:48:54;;;;;;;67.55;40.88;;;15.60;99.90;;;;;;5037813;28;20045;-69
2023/05/09 03:51:20;;;;;;;76.18;42.30;;;15.60;99.90;;;;;;5037105;28;20452;-69
2023/05/09 03:53:46;;;;;;;63.28;40.95;;;15.60;99.90;;;;;;5037004;28;20049;-69
2023/05/09 03:56:12;;;;;;;64.78;40.95;;;15.50;99.90;;;;;;5037010;28;20409;-69
2023/05/09 03:58:38;;;;;;;60.63;37.92;;;15.50;99.90;;;;;;5036865;28;20040;-69
2023/05/09 04:01:04;;;;;;;80.68;45.47;;;15.50;99.90;;;;;;5036648;28;20097;-69
2023/05/09 04:03:29;;;;;;;94.75;50.00;;;15.60;99.90;;;;;;5036019;28;20041;-69
2023/05/09 04:05:55;;;;;;;76.03;46.58;;;15.40;99.90;;;;;;5036828;28;20049;-68
2023/05/09 04:08:21;;;;;;;88.82;48.40;;;15.50;99.90;;;;;;5037011;28;20043;-69
2023/05/09 04:10:48;;;;;;;79.30;47.97;;;15.60;99.90;;;;;;5054640;28;20432;-69
2023/05/09 04:13:13;;;;;;;84.43;49.80;;;15.50;99.90;;;;;;5036669;28;20036;-69
2023/05/09 04:15:39;;;;;;;93.05;51.10;;;15.50;99.90;;;;;;5020149;28;20037;-69
2023/05/09 04:18:05;;;;;;;132.90;59.50;;;15.50;99.90;;;;;;5036565;28;20096;-69
2023/05/09 04:20:30;;;;;;;95.80;52.03;;;15.40;99.90;;;;;;5036563;28;20049;-69
2023/05/09 04:22:57;;;;;;;99.63;51.47;;;15.50;99.90;;;;;;5036579;28;20037;-69
2023/05/09 04:25:23;;;;;;;102.47;53.15;;;15.60;99.90;;;;;;5036374;28;20412;-69
2023/05/09 04:27:49;;;;;;;95.35;53.28;;;15.60;99.90;;;;;;5054167;28;20120;-68
2023/05/09 04:30:15;;;;;;;89.68;51.45;;;15.50;99.90;;;;;;5054186;28;20079;-69
2023/05/09 04:32:44;;;;;;;97.93;54.95;;;15.60;99.90;;;;;;5036311;28;20072;-69
2023/05/09 04:35:11;;;;;;;100.82;54.25;;;15.50;99.90;;;;;;5036253;28;20413;-69
2023/05/09 04:37:36;;;;;;;116.15;57.67;;;15.60;99.90;;;;;;5036114;28;20481;-69
2023/05/09 04:40:03;;;;;;;109.68;58.15;;;15.70;99.90;;;;;;5036177;28;20090;-68
2023/05/09 04:42:32;;;;;;;110.05;59.88;;;15.70;99.90;;;;;;5019588;28;20036;-68
2023/05/09 04:44:58;;;;;;;96.88;57.17;;;15.70;99.90;;;;;;5035926;28;20053;-69
2023/05/09 04:47:23;;;;;;;122.13;61.15;;;15.70;99.90;;;;;;5035931;28;20094;-69
2023/05/09 04:49:49;;;;;;;121.15;63.30;;;15.60;99.90;;;;;;5035831;28;20036;-68
2023/05/09 04:52:14;;;;;;;113.72;58.97;;;15.70;99.90;;;;;;5053891;28;20044;-69
2023/05/09 04:54:40;;;;;;;101.53;57.28;;;15.60;99.90;;;;;;5035883;28;20471;-69
2023/05/09 04:57:06;;;;;;;107.00;61.55;;;15.70;99.90;;;;;;5036123;28;20041;-69
2023/05/09 04:59:31;;;;;;;102.82;59.05;;;15.60;99.90;;;;;;5036024;28;20482;-68
2023/05/09 05:01:57;;;;;;;114.75;63.03;;;15.60;99.90;;;;;;5035837;28;20567;-68
2023/05/09 05:04:23;;;;;;;105.55;59.97;;;15.70;99.90;;;;;;5054057;28;20037;-68
2023/05/09 05:06:48;;;;;;;111.75;62.53;;;15.70;99.90;;;;;;5035554;28;20087;-69
2023/05/09 05:09:14;;;;;;;102.45;61.30;;;15.70;99.90;;;;;;5019122;28;20041;-69
2023/05/09 05:11:40;;;;;;;115.10;62.83;;;15.90;99.90;;;;;;5035844;28;20048;-69
2023/05/09 05:14:05;;;;;;;94.95;59.10;;;15.70;99.90;;;;;;5035237;28;20048;-69
2023/05/09 05:16:31;;;;;;;96.57;59.05;;;15.80;99.90;;;;;;5053563;28;20076;-69
2023/05/09 05:18:56;;;;;;;98.90;61.65;;;15.70;99.90;;;;;;5035583;28;20080;-68
2023/05/09 05:21:22;;;;;;;112.15;64.82;;;15.90;99.90;;;;;;5035385;28;20048;-69
2023/05/09 05:23:48;;;;;;;106.90;63.25;;;15.80;99.90;;;;;;5035570;28;20032;-69
2023/05/09 05:26:13;;;;;;;98.88;62.03;;;15.90;99.90;;;;;;5035361;28;20448;-69
2023/05/09 05:28:39;;;;;;;85.45;56.15;;;15.90;99.90;;;;;;5035955;28;20044;-68
2023/05/09 05:31:04;;;;;;;90.97;58.83;;;15.80;99.90;;;;;;5035291;28;20041;-69
2023/05/09 05:33:30;;;;;;;95.32;59.15;;;16.00;99.90;;;;;;5035486;28;20041;-69
2023/05/09 05:35:56;;;;;;;91.70;58.35;;;16.00;99.90;;;;;;5035243;28;20494;-69
2023/05/09 05:38:21;;;;;;;89.60;57.95;;;16.10;99.90;;;;;;5035114;28;20040;-68
2023/05/09 05:40:47;;;;;;;79.97;55.15;;;16.00;99.90;;;;;;5035197;28;20063;-69
2023/05/09 05:43:12;;;;;;;80.00;55.28;;;16.10;99.90;;;;;;5036227;28;20079;-69
2023/05/09 05:45:38;;;;;;;79.68;54.38;;;16.10;99.90;;;;;;5053343;28;20041;-69
2023/05/09 05:48:04;;;;;;;82.82;55.88;;;16.10;99.90;;;;;;5018811;28;20049;-69
2023/05/09 05:50:29;;;;;;;105.65;60.45;;;16.00;99.90;;;;;;5035329;28;20078;-69
2023/05/09 05:52:55;;;;;;;88.90;57.47;;;16.10;99.90;;;;;;5035091;28;20452;-69
2023/05/09 05:55:21;;;;;;;86.80;54.80;;;16.00;99.90;;;;;;5018930;28;20057;-69
2023/05/09 05:57:47;;;;;;;91.57;56.70;;;16.00;99.90;;;;;;5035033;28;20448;-69
2023/05/09 06:00:14;;;;;;;90.78;57.65;;;16.20;99.90;;;;;;5034970;28;20087;-68
2023/05/09 06:02:43;;;;;;;88.93;57.63;;;16.30;99.90;;;;;;5035236;28;20079;-68
2023/05/09 06:05:10;;;;;;;88.60;56.97;;;16.10;99.90;;;;;;5034940;28;20041;-68
2023/05/09 06:07:35;;;;;;;99.82;61.13;;;16.30;99.90;;;;;;5034917;28;20049;-68
2023/05/09 06:10:01;;;;;;;81.10;51.20;;;16.20;99.90;;;;;;5034913;28;20048;-68
2023/05/09 06:12:26;;;;;;;54.53;40.83;;;16.40;99.90;;;;;;5053281;28;20052;-68
2023/05/09 06:14:52;;;;;;;43.65;36.10;;;16.40;99.90;;;;;;5034930;28;20048;-68
2023/05/09 06:17:18;;;;;;;39.67;32.67;;;16.30;99.90;;;;;;5035245;28;20033;-68
2023/05/09 06:19:44;;;;;;;43.45;33.35;;;16.30;99.90;;;;;;5034735;28;20497;-68
2023/05/09 06:22:10;;;;;;;41.38;31.48;;;16.40;99.90;;;;;;5034862;28;20051;-68
2023/05/09 06:24:35;;;;;;;31.15;27.00;;;16.30;99.90;;;;;;5034769;28;20077;-68
2023/05/09 06:27:01;;;;;;;31.80;26.75;;;16.40;99.90;;;;;;5038795;28;20080;-68
2023/05/09 06:29:27;;;;;;;32.40;27.13;;;16.20;99.90;;;;;;5056396;28;20041;-68
2023/05/09 06:31:52;;;;;;;31.80;26.95;;;16.30;99.90;;;;;;5056559;28;20043;-68
2023/05/09 06:34:18;;;;;;;33.42;28.05;;;16.40;99.90;;;;;;5038509;28;20045;-68
2023/05/09 06:36:43;;;;;;;39.70;30.13;;;16.30;99.90;;;;;;5038580;28;20045;-68
2023/05/09 06:39:09;;;;;;;36.00;28.30;;;16.30;99.90;;;;;;5056508;28;20052;-68
2023/05/09 06:41:34;;;;;;;37.40;28.73;;;16.30;99.90;;;;;;5038447;28;20047;-69
2023/05/09 06:44:01;;;;;;;35.38;29.73;;;16.20;99.90;;;;;;5056154;28;20119;-69
2023/05/09 06:46:27;;;;;;;44.47;30.00;;;16.30;99.90;;;;;;5056075;28;20486;-69
2023/05/09 06:48:53;;;;;;;38.88;29.35;;;16.20;99.90;;;;;;5056337;28;20037;-68
2023/05/09 06:51:18;;;;;;;40.45;30.85;;;16.20;99.90;;;;;;5021941;28;20041;-69
2023/05/09 06:53:44;;;;;;;36.65;28.98;;;16.20;99.90;;;;;;5021721;28;20559;-69
2023/05/09 06:56:10;;;;;;;40.53;30.42;;;16.20;99.90;;;;;;5021765;28;20042;-69
2023/05/09 06:58:36;;;;;;;50.58;32.10;;;16.30;99.90;;;;;;5038058;28;20045;-69
2023/05/09 07:01:03;;;;;;;41.47;31.77;;;16.20;99.90;;;;;;5038050;28;20072;-68
2023/05/09 07:03:28;;;;;;;44.30;32.13;;;16.30;99.90;;;;;;5037900;28;20116;-69
2023/05/09 07:05:57;;;;;;;46.67;34.20;;;16.10;99.90;;;;;;5021716;28;20180;-69
2023/05/09 07:08:23;;;;;;;45.28;31.92;;;16.10;99.90;;;;;;5037800;28;20112;-69
2023/05/09 07:10:49;;;;;;;48.03;33.13;;;16.20;99.90;;;;;;5055965;28;20112;-69
2023/05/09 07:13:15;;;;;;;48.90;34.40;;;16.20;99.90;;;;;;5037799;28;20037;-69
2023/05/09 07:15:40;;;;;;;48.65;35.10;;;16.20;99.90;;;;;;5055634;28;20049;-69
2023/05/09 07:18:06;;;;;;;47.45;34.22;;;16.20;99.90;;;;;;5037703;28;20048;-69
2023/05/09 07:20:31;;;;;;;54.20;36.42;;;16.20;99.90;;;;;;5055785;28;20076;-69
2023/05/09 07:22:57;;;;;;;50.20;36.33;;;16.30;99.90;;;;;;5037689;28;20051;-69
2023/05/09 07:25:23;;;;;;;48.00;35.70;;;16.30;99.90;;;;;;5037492;28;20041;-68
2023/05/09 07:27:48;;;;;;;53.65;37.20;;;16.50;99.90;;;;;;5055509;28;20032;-69
2023/05/09 07:30:14;;;;;;;59.53;38.90;;;16.40;99.90;;;;;;5037453;28;20047;-69
2023/05/09 07:32:40;;;;;;;55.38;37.03;;;16.50;99.90;;;;;;5037409;28;20033;-69
2023/05/09 07:35:05;;;;;;;56.58;39.05;;;16.50;99.90;;;;;;5037448;28;20083;-69
2023/05/09 07:37:31;;;;;;;57.67;39.53;;;16.60;99.90;;;;;;5020686;28;20045;-69
2023/05/09 07:39:57;;;;;;;58.30;39.75;;;16.80;99.90;;;;;;5037508;28;20040;-69
2023/05/09 07:42:22;;;;;;;62.17;40.50;;;16.60;99.90;;;;;;5037242;28;20514;-69
2023/05/09 07:44:48;;;;;;;62.50;40.10;;;16.80;99.90;;;;;;5037218;28;20037;-69
2023/05/09 07:47:14;;;;;;;60.75;40.85;;;16.90;99.90;;;;;;5037082;28;20036;-69
2023/05/09 07:49:42;;;;;;;60.65;39.67;;;16.90;99.90;;;;;;5037139;28;20049;-69
2023/05/09 07:52:07;;;;;;;55.90;39.10;;;16.90;99.90;;;;;;5055007;28;20092;-68
2023/05/09 07:54:33;;;;;;;52.67;38.30;;;17.00;99.90;;;;;;5055203;28;20049;-68
2023/05/09 07:56:59;;;;;;;57.10;38.58;;;16.90;99.90;;;;;;5037250;28;20098;-68
2023/05/09 07:59:24;;;;;;;58.63;37.35;;;16.90;99.90;;;;;;5055026;28;20489;-68
2023/05/09 08:01:50;;;;;;;56.28;37.78;;;16.90;99.90;;;;;;5036890;28;20040;-68
2023/05/09 08:04:16;;;;;;;54.67;38.88;;;16.90;99.90;;;;;;5036882;28;20072;-68
2023/05/09 08:06:41;;;;;;;51.10;38.20;;;16.90;99.90;;;;;;5037127;28;20094;-70
2023/05/09 08:09:07;;;;;;;56.42;39.42;;;17.00;99.90;;;;;;5037000;28;20501;-70
2023/05/09 08:11:34;;;;;;;57.47;39.10;;;17.00;99.90;;;;;;5036809;28;20444;-70
2023/05/09 08:14:00;;;;;;;58.25;39.35;;;16.90;99.90;;;;;;5036688;28;20051;-70
2023/05/09 08:16:26;;;;;;;53.50;38.30;;;17.10;99.90;;;;;;5036665;28;20033;-70
2023/05/09 08:18:53;;;;;;;57.05;39.55;;;17.00;99.90;;;;;;5036532;28;20049;-71
2023/05/09 08:21:19;;;;;;;65.40;40.67;;;17.20;99.90;;;;;;5054420;28;20108;-71
2023/05/09 08:23:44;;;;;;;62.33;40.90;;;17.10;99.90;;;;;;5036686;28;20129;-71
2023/05/09 08:26:10;;;;;;;58.08;39.72;;;17.20;99.90;;;;;;5036449;28;20460;-71
2023/05/09 08:28:35;;;;;;;60.15;39.55;;;17.30;99.90;;;;;;5036411;28;20040;-70
2023/05/09 08:31:01;;;;;;;58.60;40.60;;;17.30;99.90;;;;;;5036399;28;20048;-71
2023/05/09 08:33:27;;;;;;;62.15;40.53;;;17.30;99.90;;;;;;5036311;28;20041;-71
2023/05/09 08:35:53;;;;;;;58.40;39.30;;;17.30;99.90;;;;;;5036300;28;20033;-71
2023/05/09 08:38:19;;;;;;;57.83;39.10;;;17.40;99.90;;;;;;5036147;28;20112;-70
2023/05/09 08:40:45;;;;;;;56.35;38.15;;;17.30;99.90;;;;;;5053997;28;20551;-71
2023/05/09 08:43:11;;;;;;;54.42;37.60;;;17.40;99.90;;;;;;5053908;28;20131;-71
2023/05/09 08:46:08;;;;;;;48.50;34.40;;;17.40;99.90;;;;;;5035939;28;20421;-70
2023/05/09 08:48:37;;;;;;;51.60;35.20;;;17.50;99.90;;;;;;5003168;28;20437;-70
2023/05/09 08:51:05;;;;;;;58.20;37.50;;;17.50;99.90;;;;;;5035860;28;20122;-71
2023/05/09 08:53:31;;;;;;;49.42;35.45;;;17.60;99.90;;;;;;5035910;28;20041;-71
2023/05/09 08:56:02;;;;;;;48.40;34.90;;;17.60;99.90;;;;;;5035819;28;20391;-71
2023/05/09 08:58:29;;;;;;;52.17;35.00;;;17.60;99.90;;;;;;5035784;28;20037;-70
2023/05/09 09:00:55;;;;;;;50.95;34.33;;;17.70;99.90;;;;;;5035713;28;20041;-70
2023/05/09 09:03:22;;;;;;;54.03;35.22;;;17.60;99.90;;;;;;5035789;28;20036;-70
2023/05/09 09:05:49;;;;;;;50.75;34.35;;;17.70;99.90;;;;;;5036006;28;20099;-70
2023/05/09 09:08:16;;;;;;;52.47;35.30;;;17.70;99.90;;;;;;5035867;28;20047;-70
2023/05/09 09:10:46;;;;;;;48.55;34.10;;;17.90;99.90;;;;;;5035667;28;20045;-70
2023/05/09 09:13:12;;;;;;;48.08;32.90;;;17.90;99.90;;;;;;5035624;28;20107;-70
2023/05/09 09:15:40;;;;;;;49.13;32.65;;;18.00;99.90;;;;;;5035568;28;20047;-70
2023/05/09 09:18:15;;;;;;;45.80;32.50;;;17.90;99.90;;;;;;5035917;28;20049;-70
2023/05/09 09:20:46;;;;;;;44.75;32.53;;;17.90;99.90;;;;;;5035737;28;20084;-70
2023/05/09 09:23:17;;;;;;;44.47;30.58;;;17.90;99.90;;;;;;5035546;28;20066;-70
2023/05/09 09:25:45;;;;;;;47.10;31.20;;;17.80;99.90;;;;;;5053824;28;20051;-70
2023/05/09 09:28:11;;;;;;;41.70;27.92;;;17.80;99.90;;;;;;5035381;28;20048;-70
2023/05/09 09:30:48;;;;;;;42.45;28.58;;;17.80;99.90;;;;;;5035318;28;20041;-70
2023/05/09 09:33:22;;;;;;;42.63;29.65;;;17.70;99.90;;;;;;5053096;28;20462;-70
2023/05/09 09:35:49;;;;;;;40.65;29.33;;;17.70;99.90;;;;;;5035421;28;20037;-71
2023/05/09 09:38:18;;;;;;;38.85;29.77;;;17.70;99.90;;;;;;5035128;28;20041;-71
2023/05/09 09:40:57;;;;;;;36.85;27.58;;;17.60;99.90;;;;;;5035486;28;20044;-71
2023/05/09 09:43:30;;;;;;;35.60;27.98;;;17.80;99.90;;;;;;5035551;28;20055;-71
2023/05/09 09:45:59;;;;;;;36.30;27.63;;;18.00;99.90;;;;;;5053400;28;20124;-71
2023/05/09 09:48:29;;;;;;;34.13;26.60;;;18.20;99.90;;;;;;5035396;28;20393;-70
2023/05/09 09:50:58;;;;;;;36.92;25.75;;;18.30;99.90;;;;;;5035152;28;20516;-71
2023/05/09 09:53:28;;;;;;;28.88;24.40;;;18.40;99.90;;;;;;5035377;28;20489;-71
2023/05/09 09:55:54;;;;;;;30.95;24.40;;;18.50;99.90;;;;;;5035339;28;20413;-71
2023/05/09 09:58:24;;;;;;;30.45;24.40;;;18.50;99.90;;;;;;5035250;28;20036;-70
2023/05/09 10:01:06;;;;;;;32.08;24.35;;;18.60;99.90;;;;;;5037064;28;20037;-71
2023/05/09 10:03:36;;;;;;;33.15;25.17;;;18.70;99.90;;;;;;5039303;28;20040;-71
2023/05/09 10:06:02;;;;;;;31.42;24.92;;;18.70;99.90;;;;;;5039109;28;20459;-71
2023/05/09 10:08:28;;;;;;;32.65;24.33;;;18.80;99.90;;;;;;5039250;28;20041;-70
2023/05/09 10:10:53;;;;;;;28.83;22.60;;;18.90;99.90;;;;;;5039088;28;20118;-71
2023/05/09 10:13:19;;;;;;;30.48;23.67;;;18.90;99.90;;;;;;5038993;28;20060;-71
2023/05/09 10:15:46;;;;;;;28.63;22.10;;;18.90;99.90;;;;;;5038921;28;20516;-71
2023/05/09 10:18:16;;;;;;;27.83;22.23;;;18.90;99.90;;;;;;5038844;28;20045;-70
2023/05/09 10:20:43;;;;;;;28.80;22.92;;;18.90;99.90;;;;;;5056721;28;20478;-70
2023/05/09 10:23:10;;;;;;;28.15;21.60;;;19.00;99.90;;;;;;5056602;28;20446;-71
2023/05/09 10:25:46;;;;;;;28.00;20.88;;;18.90;99.90;;;;;;5038738;28;20041;-71
2023/05/09 10:28:22;;;;;;;29.23;20.15;;;19.00;99.90;;;;;;5038940;28;20045;-71
2023/05/09 10:30:48;;;;;;;25.50;21.02;;;18.90;99.90;;;;;;5022510;28;20120;-71
2023/05/09 10:33:16;;;;;;;27.15;20.85;;;18.90;99.90;;;;;;5056458;28;20540;-71
2023/05/09 10:35:45;;;;;;;30.27;20.85;;;18.90;99.90;;;;;;5038478;28;20102;-71
2023/05/09 10:38:11;;;;;;;25.40;19.33;;;18.90;99.90;;;;;;5038439;28;20040;-70
2023/05/09 10:40:39;;;;;;;31.77;20.27;;;18.80;99.90;;;;;;5038486;28;20048;-70
2023/05/09 10:43:06;;;;;;;24.85;20.25;;;18.70;99.90;;;;;;5056510;28;20477;-70
2023/05/09 10:45:32;;;;;;;29.08;21.00;;;18.70;99.90;;;;;;5038300;28;20409;-69
2023/05/09 10:48:00;;;;;;;25.13;20.35;;;18.70;99.90;;;;;;5038200;28;20047;-69
2023/05/09 10:50:26;;;;;;;27.25;20.88;;;18.60;99.90;;;;;;5038288;28;20076;-70
2023/05/09 10:53:07;;;;;;;28.58;21.38;;;18.60;99.90;;;;;;5038413;28;20051;-69
2023/05/09 10:55:49;;;;;;;24.27;20.33;;;18.70;99.90;;;;;;5038182;28;20129;-69
2023/05/09 10:58:22;;;;;;;26.83;19.52;;;18.80;99.90;;;;;;5038349;28;20092;-69
2023/05/09 11:00:49;;;;;;;24.77;19.35;;;18.80;99.90;;;;;;5038384;28;20052;-69
2023/05/09 11:03:18;;;;;;;23.75;18.58;;;18.80;99.90;;;;;;5038025;28;20041;-70
2023/05/09 11:05:44;;;;;;;25.88;19.48;;;18.80;99.90;;;;;;5037990;28;20417;-70
2023/05/09 11:08:21;;;;;;;22.02;19.35;;;18.70;99.90;;;;;;5055756;28;20033;-69
2023/05/09 11:10:48;;;;;;;23.88;20.05;;;18.80;99.90;;;;;;5037271;28;20482;-69
2023/05/09 11:13:18;;;;;;;22.25;18.83;;;18.90;99.90;;;;;;5038113;28;20163;-70
2023/05/09 11:16:02;;;;;;;23.75;18.67;;;19.00;99.90;;;;;;5038065;28;20080;-69
2023/05/09 11:18:29;;;;;;;16.65;12.50;;;19.10;99.90;;;;;;5037955;28;20041;-70
2023/05/09 11:20:55;;;;;;;14.45;11.25;;;19.20;99.90;;;;;;5055714;28;20036;-70
2023/05/09 11:23:25;;;;;;;14.93;10.50;;;19.10;99.90;;;;;;5037578;28;20033;-70
2023/05/09 11:25:51;;;;;;;14.18;10.85;;;19.10;99.90;;;;;;5037558;28;20172;-70
2023/05/09 11:28:32;;;;;;;13.13;11.70;;;19.00;99.90;;;;;;5037641;28;20060;-69
2023/05/09 11:31:11;;;;;;;14.50;11.15;;;19.00;99.90;;;;;;5037608;28;20462;-69
2023/05/09 11:33:38;;;;;;;13.20;11.75;;;18.90;99.90;;;;;;5055258;28;20048;-69
2023/05/09 11:36:24;;;;;;;12.50;9.95;;;19.00;99.90;;;;;;5037489;28;20493;-69
2023/05/09 11:39:06;;;;;;;13.80;10.35;;;19.00;99.90;;;;;;5037667;28;20068;-69
2023/05/09 11:41:58;;;;;;;14.20;10.68;;;19.00;99.90;;;;;;5037400;28;20131;-69
2023/05/09 11:44:26;;;;;;;12.68;9.88;;;18.90;99.90;;;;;;5033958;28;20105;-69
2023/05/09 11:46:52;;;;;;;15.65;10.00;;;18.90;99.90;;;;;;5037616;28;20041;-69
2023/05/09 11:49:19;;;;;;;12.30;10.15;;;19.00;99.90;;;;;;5037156;28;20509;-69
2023/05/09 11:51:44;;;;;;;15.90;10.75;;;19.10;99.90;;;;;;5037164;28;20045;-69
2023/05/09 11:54:12;;;;;;;16.00;10.93;;;19.20;99.90;;;;;;5037168;28;20516;-69
2023/05/09 11:56:39;;;;;;;12.23;9.95;;;19.20;99.90;;;;;;5037079;28;20072;-69
2023/05/09 11:59:06;;;;;;;13.02;10.82;;;19.20;99.90;;;;;;5036983;28;20063;-69
2023/05/09 12:01:32;;;;;;;15.32;11.02;;;19.30;99.90;;;;;;5036976;28;20048;-69
2023/05/09 12:03:58;;;;;;;15.13;10.75;;;19.40;99.90;;;;;;5054687;28;20056;-69
2023/05/09 12:06:25;;;;;;;13.48;10.45;;;19.50;99.90;;;;;;5036817;28;20123;-69
2023/05/09 12:08:52;;;;;;;12.82;9.48;;;19.50;99.90;;;;;;5036734;28;20037;-69
2023/05/09 12:11:17;;;;;;;16.55;10.38;;;19.50;99.90;;;;;;5036758;28;20493;-69
2023/05/09 12:13:48;;;;;;;13.85;10.82;;;19.50;99.90;;;;;;5037106;28;20071;-71
2023/05/09 12:16:15;;;;;;;14.48;10.55;;;19.40;99.90;;;;;;5054588;28;20044;-69
2023/05/09 12:18:48;;;;;;;13.13;10.20;;;19.40;99.90;;;;;;5036812;28;20025;-69
2023/05/09 12:21:15;;;;;;;13.80;11.25;;;19.40;99.90;;;;;;5036622;28;20075;-69
2023/05/09 12:23:41;;;;;;;13.57;11.27;;;19.40;99.90;;;;;;5019385;28;20044;-69
2023/05/09 12:26:07;;;;;;;13.52;11.63;;;19.40;99.90;;;;;;5036777;28;20406;-69
2023/05/09 12:28:33;;;;;;;16.02;12.35;;;19.40;99.90;;;;;;5036458;28;20036;-69